Map

Track Data

SID SEASON NUMBER BASIN SUBBASIN NAME ISO_TIME NATURE LAT LON WMO_WIND WMO_PRES WMO_AGENCY TRACK_TYPE DIST2LAND LANDFALL IFLAG USA_AGENCY USA_ATCF_ID USA_LAT USA_LON USA_RECORD USA_STATUS USA_WIND USA_PRES USA_SSHS USA_R34_NE USA_R34_SE USA_R34_SW USA_R34_NW USA_R50_NE USA_R50_SE USA_R50_SW USA_R50_NW USA_R64_NE USA_R64_SE USA_R64_SW USA_R64_NW USA_POCI USA_ROCI USA_RMW USA_EYE TOKYO_LAT TOKYO_LON TOKYO_GRADE TOKYO_WIND TOKYO_PRES TOKYO_R50_DIR TOKYO_R50_LONG TOKYO_R50_SHORT TOKYO_R30_DIR TOKYO_R30_LONG TOKYO_R30_SHORT TOKYO_LAND CMA_LAT CMA_LON CMA_CAT CMA_WIND CMA_PRES HKO_LAT HKO_LON HKO_CAT HKO_WIND HKO_PRES NEWDELHI_LAT NEWDELHI_LON NEWDELHI_GRADE NEWDELHI_WIND NEWDELHI_PRES NEWDELHI_CI NEWDELHI_DP NEWDELHI_POCI REUNION_LAT REUNION_LON REUNION_TYPE REUNION_WIND REUNION_PRES REUNION_TNUM REUNION_CI REUNION_RMW REUNION_R34_NE REUNION_R34_SE REUNION_R34_SW REUNION_R34_NW REUNION_R50_NE REUNION_R50_SE REUNION_R50_SW REUNION_R50_NW REUNION_R64_NE REUNION_R64_SE REUNION_R64_SW REUNION_R64_NW BOM_LAT BOM_LON BOM_TYPE BOM_WIND BOM_PRES BOM_TNUM BOM_CI BOM_RMW BOM_R34_NE BOM_R34_SE BOM_R34_SW BOM_R34_NW BOM_R50_NE BOM_R50_SE BOM_R50_SW BOM_R50_NW BOM_R64_NE BOM_R64_SE BOM_R64_SW BOM_R64_NW BOM_ROCI BOM_POCI BOM_EYE BOM_POS_METHOD BOM_PRES_METHOD NADI_LAT NADI_LON NADI_CAT NADI_WIND NADI_PRES WELLINGTON_LAT WELLINGTON_LON WELLINGTON_WIND WELLINGTON_PRES DS824_LAT DS824_LON DS824_STAGE DS824_WIND DS824_PRES TD9636_LAT TD9636_LON TD9636_STAGE TD9636_WIND TD9636_PRES TD9635_LAT TD9635_LON TD9635_WIND TD9635_PRES TD9635_ROCI NEUMANN_LAT NEUMANN_LON NEUMANN_CLASS NEUMANN_WIND NEUMANN_PRES MLC_LAT MLC_LON MLC_CLASS MLC_WIND MLC_PRES USA_GUST BOM_GUST BOM_GUST_PER REUNION_GUST REUNION_GUST_PER USA_SEAHGT USA_SEARAD_NE USA_SEARAD_SE USA_SEARAD_SW USA_SEARAD_NW STORM_SPEED STORM_DIR
1943205N20090 1943 44 NI BB NOT_NAMED 1943-07-24 00:00:00 TS 19.5000 89.7000 main 243 238 _________O____ -1 19.5000 89.7000 TC 30 3 268
1943205N20090 1943 44 NI BB NOT_NAMED 1943-07-24 03:00:00 TS 19.4934 89.5266 main 238 235 _________PO___ -1 19.4901 89.4400 TC 30 19.5000 89.7000 1 4 271
1943205N20090 1943 44 NI BB NOT_NAMED 1943-07-24 06:00:00 TS 19.5095 89.3038 main 235 234 _________OP___ -1 19.5000 89.2000 TC 30 19.5238 89.4595 1 4 277
1943205N20090 1943 44 NI BB NOT_NAMED 1943-07-24 09:00:00 TS 19.5448 89.0922 main 234 223 _________PP___ -1 19.5425 88.9925 TC 30 19.5480 89.2252 1 4 281
1943205N20090 1943 44 NI BB NOT_NAMED 1943-07-24 12:00:00 TS 19.5866 88.9016 main 223 215 _________OP___ -1 19.6000 88.8000 TC 30 19.5731 89.0033 1 4 282
1943205N20090 1943 44 NI BB NOT_NAMED 1943-07-24 15:00:00 TS 19.6250 88.7000 main 215 192 _________PO___ -1 19.6500 88.6000 TC 31 19.6000 88.8000 1 4 282
1943205N20090 1943 44 NI BB NOT_NAMED 1943-07-24 18:00:00 TS 19.6651 88.5085 main 192 175 _________OP___ -1 19.7000 88.4000 TC 32 19.6303 88.6170 1 4 283
1943205N20090 1943 44 NI BB NOT_NAMED 1943-07-24 21:00:00 TS 19.7059 88.3298 main 175 152 _________PP___ -1 19.7424 88.2224 TC 33 19.6695 88.4371 1 4 285
1943205N20090 1943 44 NI BB NOT_NAMED 1943-07-25 00:00:00 TS 19.7620 88.1194 main 152 137 _________OP___ -1 19.8000 88.0000 TC 34 19.7240 88.2388 1 5 286
1943205N20090 1943 44 NI BB NOT_NAMED 1943-07-25 03:00:00 TS 19.8425 87.8362 main 127 94 _________PO___ -1 19.8850 87.6725 TC 33 19.8000 88.0000 2 6 288
1943205N20090 1943 44 NI BB NOT_NAMED 1943-07-25 06:00:00 TS 19.9456 87.5026 main 94 56 _________OP___ -1 20.0000 87.3000 TC 32 19.8912 87.7051 2 7 290
1943205N20090 1943 44 NI BB NOT_NAMED 1943-07-25 09:00:00 TS 20.0699 87.1660 main 56 15 _________PP___ -1 20.1348 86.9649 TC 31 20.0049 87.3672 2 7 293
1943205N20090 1943 44 NI BB NOT_NAMED 1943-07-25 12:00:00 TS 20.2206 86.7978 main 15 0 _________OP___ -1 20.3000 86.6000 TC 30 20.1411 86.9956 2 8 294
1943205N20090 1943 44 NI BB NOT_NAMED 1943-07-25 15:00:00 TS 20.3963 86.3788 main 0 0 _________PO___ -1 20.4925 86.1575 TC 30 20.3000 86.6000 1 9 295
1943205N20090 1943 44 NI BB NOT_NAMED 1943-07-25 18:00:00 TS 20.5911 85.9544 main 0 0 _________OP___ -1 20.7000 85.7000 TC 30 20.4822 86.2087 1 9 297
1943205N20090 1943 44 NI BB NOT_NAMED 1943-07-25 21:00:00 TS 20.7921 85.5511 main 0 0 _________PP___ -1 20.8997 85.3073 TC 30 20.6845 85.7950 1 9 298
1943205N20090 1943 44 NI BB NOT_NAMED 1943-07-26 00:00:00 TS 20.9973 85.1293 main 0 0 _________OP___ -1 21.1000 84.9000 TC 30 20.8946 85.3587 1 9 296
1943205N20090 1943 44 NI BB NOT_NAMED 1943-07-26 03:00:00 TS 21.2037 84.6575 main 0 0 _________PO___ -1 21.3075 84.4150 TC 30 21.1000 84.9000 1 10 293
1943205N20090 1943 44 NI BB NOT_NAMED 1943-07-26 06:00:00 TS 21.3871 84.1525 main 0 0 _________OP___ -1 21.5000 83.9000 TC 30 21.2742 84.4050 1 10 290
1943205N20090 1943 44 NI BB NOT_NAMED 1943-07-26 09:00:00 TS 21.5464 83.6384 main 0 0 _________PP___ -1 21.6500 83.3848 TC 30 21.4428 83.8920 1 10 289
1943205N20090 1943 44 NI BB NOT_NAMED 1943-07-26 12:00:00 TS 21.7074 83.1415 main 0 0 _________OP___ -1 21.8000 82.9000 TC 30 21.6149 83.3830 1 9 292
1943205N20090 1943 44 NI BB NOT_NAMED 1943-07-26 15:00:00 TS 21.8924 82.6924 main 0 0 _________PO___ -1 21.9848 82.4848 TC 30 21.8000 82.9000 1 9 296
1943205N20090 1943 44 NI BB NOT_NAMED 1943-07-26 18:00:00 TS 22.0949 82.2812 main 0 0 _________OP___ -1 22.2000 82.1000 TC 30 21.9898 82.4625 1 9 299
1943205N20090 1943 44 NI BB NOT_NAMED 1943-07-26 21:00:00 TS 22.3122 81.8732 main 0 0 _________PP___ -1 22.4275 81.6923 TC 30 22.1969 82.0541 1 9 303
1943205N20090 1943 44 NI BB NOT_NAMED 1943-07-27 00:00:00 TS 22.5653 81.4843 main 0 0 _________OP___ -1 22.7000 81.3000 TC 30 22.4305 81.6686 1 9 309
1943205N20090 1943 44 NI BB NOT_NAMED 1943-07-27 03:00:00 TS 22.8674 81.1212 main 0 0 _________PO___ -1 23.0349 80.9424 TC 30 22.7000 81.3000 1 9 314
1943205N20090 1943 44 NI BB NOT_NAMED 1943-07-27 06:00:00 TS 23.2026 80.7776 main 0 0 _________OP___ -1 23.4000 80.6000 TC 30 23.0052 80.9551 1 9 317
1943205N20090 1943 44 NI BB NOT_NAMED 1943-07-27 09:00:00 TS 23.5406 80.4429 main 0 0 _________PP___ -1 23.7348 80.2645 TC 30 23.3465 80.6212 1 9 318
1943205N20090 1943 44 NI BB NOT_NAMED 1943-07-27 12:00:00 TS 23.9073 80.0883 main 0 0 _________OP___ -1 24.1000 79.9000 TC 30 23.7145 80.2767 1 10 319
1943205N20090 1943 44 NI BB NOT_NAMED 1943-07-27 15:00:00 TS 24.3250 79.6863 main 0 0 _________PO___ -1 24.5499 79.4726 TC 30 24.1000 79.9000 1 12 317
1943205N20090 1943 44 NI BB NOT_NAMED 1943-07-27 18:00:00 TS 24.7717 79.2031 main 0 0 _________OP___ -1 25.0000 79.0000 TC 30 24.5435 79.4062 1 13 313
1943205N20090 1943 44 NI BB NOT_NAMED 1943-07-27 21:00:00 TS 25.2009 78.6668 main 0 0 _________PP___ -1 25.4103 78.4479 TC 30 24.9915 78.8856 1 12 310
1943205N20090 1943 44 NI BB NOT_NAMED 1943-07-28 00:00:00 TS 25.5468 78.1984 main 0 0 _________OP___ -1 25.7000 78.0000 TC 30 25.3936 78.3969 1 9 309
1943205N20090 1943 44 NI AS NOT_NAMED 1943-07-28 03:00:00 TS 25.7473 77.9235 main 0 0 _________PO___ -1 25.7947 77.8470 TC 30 25.7000 78.0000 1 5 307
1943205N20090 1943 44 NI AS NOT_NAMED 1943-07-28 06:00:00 TS 25.8248 77.7903 main 0 0 _________OP___ -1 25.8000 77.8000 TC 30 25.8496 77.7805 1 3 299
1943205N20090 1943 44 NI AS NOT_NAMED 1943-07-28 09:00:00 TS 25.8769 77.6614 main 0 0 _________PP___ -1 25.8500 77.6650 TC 30 25.9037 77.6578 1 2 289
1943205N20090 1943 44 NI AS NOT_NAMED 1943-07-28 12:00:00 TS 25.9031 77.5406 main 0 0 _________OP___ -1 25.9000 77.5000 TC 30 25.9061 77.5812 1 2 282
1943205N20090 1943 44 NI AS NOT_NAMED 1943-07-28 15:00:00 TS 25.9250 77.4000 main 0 0 _________PO___ -1 25.9500 77.3000 TC 30 25.9000 77.5000 1 3 283
1943205N20090 1943 44 NI AS NOT_NAMED 1943-07-28 18:00:00 TS 25.9687 77.2358 main 0 0 _________OP___ -1 26.0000 77.1000 TC 30 25.9375 77.3715 1 3 287
1943205N20090 1943 44 NI AS NOT_NAMED 1943-07-28 21:00:00 TS 26.0096 77.1021 main 0 0 _________PP___ -1 26.0423 76.9799 TC 30 25.9769 77.2244 1 3 289
1943205N20090 1943 44 NI AS NOT_NAMED 1943-07-29 00:00:00 TS 26.0640 76.9201 main 0 0 _________OP___ -1 26.1000 76.8000 TC 30 26.0279 77.0401 1 5 287
1943205N20090 1943 44 NI AS NOT_NAMED 1943-07-29 03:00:00 TS 26.1426 76.6150 main 0 0 _________PO___ -1 26.1852 76.4300 TC 30 26.1000 76.8000 1 6 287
1943205N20090 1943 44 NI AS NOT_NAMED 1943-07-29 06:00:00 TS 26.2560 76.2374 main 0 0 _________OP___ -1 26.3000 76.0000 TC 30 26.2120 76.4749 1 7 291
1943205N20090 1943 44 NI AS NOT_NAMED 1943-07-29 09:00:00 TS 26.3965 75.8654 main 0 0 _________PP___ -1 26.4499 75.6350 TC 30 26.3431 76.0957 1 7 293
1943205N20090 1943 44 NI AS NOT_NAMED 1943-07-29 12:00:00 TS 26.5388 75.4968 main 0 0 _________OP___ -1 26.6000 75.3000 TC 30 26.4776 75.6936 1 7 292
1943205N20090 1943 44 NI AS NOT_NAMED 1943-07-29 15:00:00 TS 26.6574 75.1500 main 0 0 _________PO___ -1 26.7148 74.9999 TC 30 26.6000 75.3000 1 6 289
1943205N20090 1943 44 NI AS NOT_NAMED 1943-07-29 18:00:00 TS 26.7422 74.8370 main 0 0 _________OP___ -1 26.8000 74.7000 TC 30 26.6989 74.9397 1 6 285
1943205N20090 1943 44 NI AS NOT_NAMED 1943-07-29 21:00:00 TS 26.8096 74.5108 main 0 0 _________PP___ -1 26.8577 74.3626 TC 30 26.7774 74.6097 1 6 282
1943205N20090 1943 44 NI AS NOT_NAMED 1943-07-30 00:00:00 TS 26.8615 74.1999 main 0 0 _________OP___ -1 26.9000 74.0000 TC 30 26.8423 74.2999 1 5 281
1943205N20090 1943 44 NI AS NOT_NAMED 1943-07-30 03:00:00 NR 26.9000 74.0000 main 0 __________O___ -1 TC 26.9000 74.0000 1 4 282

About IBTrACS Database

This database is a web-friendly format of International Best Track Archive for Climate Stewardship (IBTrACS), a global best track data archive curated by NOAA dating back to 1842.

Updated: 2021-12-06